METAR Data
IDs: Format: Raw Decoded Include TAF

Data at: 1948 UTC 17 Nov 2019

KCGI 171853Z 26004KT 5SM HZ CLR 08/02 A2998 RMK AO2 SLP155 T00830017
KCGI 171753Z 27009KT 5SM HZ CLR 08/02 A3003 RMK AO2 SLP171 I6000 T00780022 10078 21028 58019
KCGI 171653Z 25003KT 4SM HZ CLR 06/02 A3006 RMK AO2 SLP180 T00560022
KCGI 171553Z 00000KT 3SM HZ CLR 04/01 A3009 RMK AO2 SLP190 T00440011
KCGI 171453Z 00000KT 2SM BR CLR 01/00 A3009 RMK AO2 SLP192 I3000 T00110000 56006
KCGI 171424Z 00000KT 2SM BR CLR 01/M01 A3010 RMK AO2 T00061011
KCGI 171353Z 00000KT 1 3/4SM BR CLR M01/M02 A3010 RMK AO2 SLP194 T10061017
KCGI 171324Z 00000KT 2 1/2SM BR CLR M02/M03 A3010 RMK AO2 T10221033
KCGI 171253Z 00000KT 1 1/2SM BR CLR M02/M03 A3010 RMK AO2 SLP194 I1000 T10221033
KCGI 171236Z AUTO 00000KT 1 1/2SM BR CLR M02/M03 A3010 RMK AO2 I1000 T10221033
KCGI 171153Z AUTO 26003KT 2 1/2SM BR CLR M02/M03 A3011 RMK AO2 SLP198 T10171033 10000 21039 55009
KCGI 171053Z AUTO 00000KT 2 1/2SM BR CLR M03/M04 A3010 RMK AO2 SLP194 T10281039
KCGI 171022Z AUTO 00000KT 2 1/2SM BR CLR M03/M04 A3011 RMK AO2 T10281039
KCGI 170953Z AUTO 00000KT 3SM BR CLR M02/M03 A3011 RMK AO2 SLP198 T10221033
KCGI 170853Z AUTO 00000KT 3SM BR CLR M01/M03 A3013 RMK AO2 SLP206 T10111028 58007
KCGI 170753Z AUTO 00000KT 3SM BR CLR M01/M03 A3015 RMK AO2 SLP212 T10111028
KCGI 170653Z AUTO 00000KT 4SM BR CLR M01/M03 A3016 RMK AO2 SLP215 T10111028
KCGI 170553Z AUTO 00000KT 5SM BR CLR 00/M02 A3015 RMK AO2 SLP212 T00001022 10050 21011 401171044 56007
KCGI 170453Z AUTO 00000KT 5SM BR CLR 00/M02 A3015 RMK AO2 SLP213 T00001017
KCGI 170353Z AUTO 08003KT 7SM CLR 03/00 A3017 RMK AO2 SLP218 T00280000
KCGI 170253Z AUTO 08003KT 7SM CLR 02/M01 A3017 RMK AO2 SLP220 T00171011 58002
KCGI 170153Z AUTO 10003KT 9SM CLR 03/M01 A3018 RMK AO2 SLP222 T00281006
KCGI 170053Z AUTO 06003KT 8SM CLR 04/M01 A3018 RMK AO2 SLP223 T00391006
KCGI 162353Z AUTO 05005KT 10SM CLR 05/00 A3018 RMK AO2 SLP222 T00500000 10117 20050 56006
KCGI 162253Z 04005KT 10SM CLR 07/01 A3018 RMK AO2 SLP222 T00720011
KCGI 162153Z 05007KT 10SM CLR 11/01 A3019 RMK AO2 SLP225 T01060006
KCGI 162053Z 06006KT 10SM CLR 11/01 A3020 RMK AO2 SLP227 T01110006 56025
KCGI 161953Z 05005KT 10SM CLR 11/01 A3022 RMK AO2 SLP234 T01110006
KCGI 161853Z 05005KT 9SM CLR 10/00 A3025 RMK AO2 SLP244 T01000000
KCGI 161753Z 04006KT 8SM CLR 09/M01 A3027 RMK AO2 SLP253 T00891006 10089 21033 58021
KCGI 161653Z 03003KT 7SM CLR 07/M01 A3032 RMK AO2 SLP268 T00721011
KCGI 161553Z VRB03KT 6SM HZ CLR 04/M01 A3033 RMK AO2 SLP273 T00441011
KCGI 161453Z 05007KT 5SM HZ CLR 03/M02 A3034 RMK AO2 SLP275 T00281017 50001
KCGI 161353Z 00000KT 4SM BR CLR M01/M03 A3035 RMK AO2 SLP278 T10061028
KCGI 161253Z AUTO 23003KT 4SM BR CLR M03/M04 A3035 RMK AO2 SLP280 T10281044
KCGI 161153Z AUTO 00000KT 6SM BR CLR M03/M06 A3033 RMK AO2 SLP274 T10331056 11011 21044 53005
KCGI 161053Z AUTO 00000KT 7SM CLR M02/M04 A3032 RMK AO2 SLP271 T10221044
KCGI 160953Z AUTO 24003KT 7SM CLR M03/M04 A3032 RMK AO2 SLP269 T10281044
KCGI 160853Z AUTO 00000KT 7SM CLR M03/M04 A3032 RMK AO2 SLP269 T10281039 58007
KCGI 160753Z AUTO 00000KT 8SM CLR M02/M04 A3033 RMK AO2 SLP271 T10221039